sensor_id;sensor_type;location;lat;lon;timestamp;pressure;altitude;pressure_sealevel;temperature;humidity
49835;BME280;35729;52.090;13.162;2023-05-19T00:01:39;102090.56;;;9.32;60.38
49835;BME280;35729;52.090;13.162;2023-05-19T00:04:09;102092.31;;;9.33;60.53
49835;BME280;35729;52.090;13.162;2023-05-19T00:06:42;102091.41;;;9.27;60.75
49835;BME280;35729;52.090;13.162;2023-05-19T00:09:11;102093.16;;;9.24;60.95
49835;BME280;35729;52.090;13.162;2023-05-19T00:11:40;102089.63;;;9.20;60.96
49835;BME280;35729;52.090;13.162;2023-05-19T00:14:09;102100.97;;;9.18;61.12
49835;BME280;35729;52.090;13.162;2023-05-19T00:16:39;102094.84;;;9.14;61.30
49835;BME280;35729;52.090;13.162;2023-05-19T00:19:08;102100.06;;;9.12;61.53
49835;BME280;35729;52.090;13.162;2023-05-19T00:21:36;102096.56;;;9.09;61.56
49835;BME280;35729;52.090;13.162;2023-05-19T00:24:08;102092.16;;;9.06;61.76
49835;BME280;35729;52.090;13.162;2023-05-19T00:26:37;102094.75;;;9.03;61.73
49835;BME280;35729;52.090;13.162;2023-05-19T00:29:06;102088.63;;;9.00;62.01
49835;BME280;35729;52.090;13.162;2023-05-19T00:31:34;102088.63;;;8.98;62.24
49835;BME280;35729;52.090;13.162;2023-05-19T00:34:03;102085.13;;;8.96;62.22
49835;BME280;35729;52.090;13.162;2023-05-19T00:36:31;102082.47;;;8.91;62.39
49835;BME280;35729;52.090;13.162;2023-05-19T00:39:00;102091.19;;;8.89;62.55
49835;BME280;35729;52.090;13.162;2023-05-19T00:41:31;102089.38;;;8.83;62.71
49835;BME280;35729;52.090;13.162;2023-05-19T00:43:59;102084.13;;;8.80;62.94
49835;BME280;35729;52.090;13.162;2023-05-19T00:46:28;102083.25;;;8.76;62.95
49835;BME280;35729;52.090;13.162;2023-05-19T00:48:56;102082.34;;;8.73;63.37
49835;BME280;35729;52.090;13.162;2023-05-19T00:51:26;102082.28;;;8.67;63.50
49835;BME280;35729;52.090;13.162;2023-05-19T00:53:55;102077.91;;;8.61;63.51
49835;BME280;35729;52.090;13.162;2023-05-19T00:56:24;102089.22;;;8.58;63.78
49835;BME280;35729;52.090;13.162;2023-05-19T00:58:57;102084.81;;;8.54;63.92
49835;BME280;35729;52.090;13.162;2023-05-19T01:01:26;102084.78;;;8.51;63.82
49835;BME280;35729;52.090;13.162;2023-05-19T01:03:56;102089.97;;;8.46;64.02
49835;BME280;35729;52.090;13.162;2023-05-19T01:06:25;102089.06;;;8.43;64.03
49835;BME280;35729;52.090;13.162;2023-05-19T01:08:54;102083.78;;;8.40;64.58
49835;BME280;35729;52.090;13.162;2023-05-19T01:11:23;102088.09;;;8.33;64.80
49835;BME280;35729;52.090;13.162;2023-05-19T01:13:52;102083.66;;;8.27;64.89
49835;BME280;35729;52.090;13.162;2023-05-19T01:16:28;102085.38;;;8.22;65.13
49835;BME280;35729;52.090;13.162;2023-05-19T01:19:00;102080.06;;;8.16;65.29
49835;BME280;35729;52.090;13.162;2023-05-19T01:21:57;102080.91;;;8.12;65.53
49835;BME280;35729;52.090;13.162;2023-05-19T01:27:47;102077.34;;;8.04;65.65
49835;BME280;35729;52.090;13.162;2023-05-19T01:30:26;102078.16;;;7.99;65.35
49835;BME280;35729;52.090;13.162;2023-05-19T01:32:58;102082.47;;;7.96;65.66
49835;BME280;35729;52.090;13.162;2023-05-19T01:35:28;102083.38;;;7.95;65.65
49835;BME280;35729;52.090;13.162;2023-05-19T01:37:59;102072.88;;;7.92;65.87
49835;BME280;35729;52.090;13.162;2023-05-19T01:40:29;102082.47;;;7.91;66.04
49835;BME280;35729;52.090;13.162;2023-05-19T01:43:00;102080.69;;;7.89;66.16
49835;BME280;35729;52.090;13.162;2023-05-19T01:45:32;102082.38;;;7.85;66.52
49835;BME280;35729;52.090;13.162;2023-05-19T01:48:02;102081.47;;;7.83;66.55
49835;BME280;35729;52.090;13.162;2023-05-19T01:50:32;102080.59;;;7.81;66.63
49835;BME280;35729;52.090;13.162;2023-05-19T01:53:00;102080.56;;;7.78;66.80
49835;BME280;35729;52.090;13.162;2023-05-19T01:55:29;102090.09;;;7.76;66.70
49835;BME280;35729;52.090;13.162;2023-05-19T01:58:04;102085.75;;;7.75;66.90
49835;BME280;35729;52.090;13.162;2023-05-19T02:00:47;102087.47;;;7.73;67.05
49835;BME280;35729;52.090;13.162;2023-05-19T02:03:23;102092.66;;;7.70;68.20
49835;BME280;35729;52.090;13.162;2023-05-19T02:05:58;102093.44;;;7.62;66.92
49835;BME280;35729;52.090;13.162;2023-05-19T02:08:33;102082.91;;;7.56;67.13
49835;BME280;35729;52.090;13.162;2023-05-19T02:11:10;102085.47;;;7.52;67.18
49835;BME280;35729;52.090;13.162;2023-05-19T02:13:43;102091.53;;;7.49;67.45
49835;BME280;35729;52.090;13.162;2023-05-19T02:16:20;102081.91;;;7.45;67.55
49835;BME280;35729;52.090;13.162;2023-05-19T02:18:50;102080.06;;;7.39;67.60
49835;BME280;35729;52.090;13.162;2023-05-19T02:21:18;102082.72;;;7.41;67.80
49835;BME280;35729;52.090;13.162;2023-05-19T02:23:47;102076.56;;;7.36;67.90
49835;BME280;35729;52.090;13.162;2023-05-19T02:26:16;102078.34;;;7.38;68.06
49835;BME280;35729;52.090;13.162;2023-05-19T02:28:44;102073.91;;;7.31;68.30
49835;BME280;35729;52.090;13.162;2023-05-19T02:31:13;102079.19;;;7.36;68.36
49835;BME280;35729;52.090;13.162;2023-05-19T02:33:44;102087.88;;;7.34;68.37
49835;BME280;35729;52.090;13.162;2023-05-19T02:36:12;102075.66;;;7.33;68.41
49835;BME280;35729;52.090;13.162;2023-05-19T02:38:41;102070.44;;;7.33;68.36
49835;BME280;35729;52.090;13.162;2023-05-19T02:41:09;102064.38;;;7.33;68.77
49835;BME280;35729;52.090;13.162;2023-05-19T02:43:38;102057.38;;;7.32;68.78
49835;BME280;35729;52.090;13.162;2023-05-19T02:46:06;102066.06;;;7.31;68.65
49835;BME280;35729;52.090;13.162;2023-05-19T02:48:35;102066.00;;;7.28;68.83
49835;BME280;35729;52.090;13.162;2023-05-19T02:51:06;102066.00;;;7.26;69.18
49835;BME280;35729;52.090;13.162;2023-05-19T02:53:35;102075.59;;;7.27;69.08
49835;BME280;35729;52.090;13.162;2023-05-19T02:56:03;102069.50;;;7.27;69.21
49835;BME280;35729;52.090;13.162;2023-05-19T02:58:32;102068.63;;;7.28;69.00
49835;BME280;35729;52.090;13.162;2023-05-19T03:01:00;102062.53;;;7.27;68.99
49835;BME280;35729;52.090;13.162;2023-05-19T03:03:29;102066.00;;;7.26;69.01
49835;BME280;35729;52.090;13.162;2023-05-19T03:05:57;102054.69;;;7.24;69.08
49835;BME280;35729;52.090;13.162;2023-05-19T03:08:29;102059.84;;;7.21;69.19
49835;BME280;35729;52.090;13.162;2023-05-19T03:10:57;102056.31;;;7.17;69.30
49835;BME280;35729;52.090;13.162;2023-05-19T03:13:26;102056.28;;;7.14;69.28
49835;BME280;35729;52.090;13.162;2023-05-19T03:15:54;102061.44;;;7.11;69.37
49835;BME280;35729;52.090;13.162;2023-05-19T03:18:24;102055.34;;;7.11;69.97
49835;BME280;35729;52.090;13.162;2023-05-19T03:20:53;102062.28;;;7.09;69.57
49835;BME280;35729;52.090;13.162;2023-05-19T03:23:21;102064.84;;;7.06;69.66
49835;BME280;35729;52.090;13.162;2023-05-19T03:25:53;102067.44;;;7.04;69.85
49835;BME280;35729;52.090;13.162;2023-05-19T03:28:22;102071.81;;;7.05;69.90
49835;BME280;35729;52.090;13.162;2023-05-19T03:30:51;102070.06;;;7.06;69.65
49835;BME280;35729;52.090;13.162;2023-05-19T03:33:20;102077.91;;;7.07;69.91
49835;BME280;35729;52.090;13.162;2023-05-19T03:36:02;102083.13;;;7.07;69.86
49835;BME280;35729;52.090;13.162;2023-05-19T03:38:31;102080.53;;;7.07;69.65
49835;BME280;35729;52.090;13.162;2023-05-19T03:41:02;102078.81;;;7.08;69.84
49835;BME280;35729;52.090;13.162;2023-05-19T03:43:31;102084.03;;;7.08;70.03
49835;BME280;35729;52.090;13.162;2023-05-19T03:45:59;102075.28;;;7.06;69.86
49835;BME280;35729;52.090;13.162;2023-05-19T03:48:28;102079.66;;;7.05;69.96
49835;BME280;35729;52.090;13.162;2023-05-19T03:50:56;102085.72;;;7.06;70.19
49835;BME280;35729;52.090;13.162;2023-05-19T03:53:25;102077.91;;;7.06;70.23
49835;BME280;35729;52.090;13.162;2023-05-19T03:55:55;102080.50;;;7.06;70.07
49835;BME280;35729;52.090;13.162;2023-05-19T03:58:26;102077.91;;;7.06;70.08
49835;BME280;35729;52.090;13.162;2023-05-19T04:00:55;102081.38;;;7.06;70.17
49835;BME280;35729;52.090;13.162;2023-05-19T04:03:23;102080.50;;;7.06;70.07
49835;BME280;35729;52.090;13.162;2023-05-19T04:05:52;102083.97;;;7.05;70.13
49835;BME280;35729;52.090;13.162;2023-05-19T04:08:21;102083.97;;;7.03;70.33
49835;BME280;35729;52.090;13.162;2023-05-19T04:10:50;102082.19;;;7.02;70.33
49835;BME280;35729;52.090;13.162;2023-05-19T04:13:19;102084.81;;;7.02;70.34
49835;BME280;35729;52.090;13.162;2023-05-19T04:15:51;102090.03;;;7.04;70.31
49835;BME280;35729;52.090;13.162;2023-05-19T04:18:19;102074.34;;;7.00;70.43
49835;BME280;35729;52.090;13.162;2023-05-19T04:20:48;102081.38;;;7.05;70.38
49835;BME280;35729;52.090;13.162;2023-05-19T04:23:16;102088.34;;;7.06;70.24
49835;BME280;35729;52.090;13.162;2023-05-19T04:25:45;102084.88;;;7.07;70.19
49835;BME280;35729;52.090;13.162;2023-05-19T04:28:14;102087.53;;;7.10;70.53
49835;BME280;35729;52.090;13.162;2023-05-19T04:30:43;102089.28;;;7.11;70.18
49835;BME280;35729;52.090;13.162;2023-05-19T04:33:14;102095.44;;;7.14;70.20
49835;BME280;35729;52.090;13.162;2023-05-19T04:35:44;102091.97;;;7.15;70.07
49835;BME280;35729;52.090;13.162;2023-05-19T04:38:14;102083.25;;;7.16;69.95
49835;BME280;35729;52.090;13.162;2023-05-19T04:40:44;102093.69;;;7.16;70.23
49835;BME280;35729;52.090;13.162;2023-05-19T04:43:14;102089.41;;;7.20;69.92
49835;BME280;35729;52.090;13.162;2023-05-19T04:45:43;102097.28;;;7.22;70.08
49835;BME280;35729;52.090;13.162;2023-05-19T04:48:17;102095.53;;;7.24;70.16
49835;BME280;35729;52.090;13.162;2023-05-19T04:50:46;102098.16;;;7.25;70.24
49835;BME280;35729;52.090;13.162;2023-05-19T04:53:16;102099.94;;;7.28;70.10
49835;BME280;35729;52.090;13.162;2023-05-19T04:55:46;102099.16;;;7.30;70.18
49835;BME280;35729;52.090;13.162;2023-05-19T04:58:14;102105.22;;;7.31;69.92
49835;BME280;35729;52.090;13.162;2023-05-19T05:00:44;102096.56;;;7.33;69.99
49835;BME280;35729;52.090;13.162;2023-05-19T05:03:12;102099.19;;;7.37;70.00
49835;BME280;35729;52.090;13.162;2023-05-19T05:05:44;102101.88;;;7.40;70.09
49835;BME280;35729;52.090;13.162;2023-05-19T05:08:13;102100.19;;;7.43;69.80
49835;BME280;35729;52.090;13.162;2023-05-19T05:10:47;102091.50;;;7.46;70.17
49835;BME280;35729;52.090;13.162;2023-05-19T05:13:16;102089.81;;;7.51;69.56
49835;BME280;35729;52.090;13.162;2023-05-19T05:15:45;102094.22;;;7.55;69.76
49835;BME280;35729;52.090;13.162;2023-05-19T05:18:14;102084.66;;;7.56;69.77
49835;BME280;35729;52.090;13.162;2023-05-19T05:20:46;102087.38;;;7.63;69.69
49835;BME280;35729;52.090;13.162;2023-05-19T05:23:16;102078.69;;;7.68;69.55
49835;BME280;35729;52.090;13.162;2023-05-19T05:25:46;102082.25;;;7.73;69.62
49835;BME280;35729;52.090;13.162;2023-05-19T05:28:14;102087.53;;;7.79;69.78
49835;BME280;35729;52.090;13.162;2023-05-19T05:30:43;102078.84;;;7.81;69.63
49835;BME280;35729;52.090;13.162;2023-05-19T05:33:13;102080.63;;;7.86;69.60
49835;BME280;35729;52.090;13.162;2023-05-19T05:35:42;102075.41;;;7.87;69.65
49835;BME280;35729;52.090;13.162;2023-05-19T05:38:13;102077.19;;;7.90;69.87
49835;BME280;35729;52.090;13.162;2023-05-19T05:40:42;102081.63;;;7.94;69.52
49835;BME280;35729;52.090;13.162;2023-05-19T05:43:10;102077.31;;;7.99;69.95
49835;BME280;35729;52.090;13.162;2023-05-19T05:45:39;102079.94;;;8.02;69.67
49835;BME280;35729;52.090;13.162;2023-05-19T05:48:08;102081.75;;;8.08;69.54
49835;BME280;35729;52.090;13.162;2023-05-19T05:50:38;102082.69;;;8.13;69.73
49835;BME280;35729;52.090;13.162;2023-05-19T05:53:07;102075.75;;;8.18;69.80
49835;BME280;35729;52.090;13.162;2023-05-19T05:55:40;102084.53;;;8.26;69.60
49835;BME280;35729;52.090;13.162;2023-05-19T05:58:09;102072.41;;;8.35;69.36
49835;BME280;35729;52.090;13.162;2023-05-19T06:00:40;102073.34;;;8.41;69.41
49835;BME280;35729;52.090;13.162;2023-05-19T06:03:10;102079.56;;;8.50;69.43
49835;BME280;35729;52.090;13.162;2023-05-19T06:05:39;102076.13;;;8.57;69.09
49835;BME280;35729;52.090;13.162;2023-05-19T06:08:07;102077.06;;;8.67;69.15
49835;BME280;35729;52.090;13.162;2023-05-19T06:10:36;102081.47;;;8.75;68.98
49835;BME280;35729;52.090;13.162;2023-05-19T06:13:08;102077.19;;;8.85;69.11
49835;BME280;35729;52.090;13.162;2023-05-19T06:15:37;102079.91;;;8.96;69.15
49835;BME280;35729;52.090;13.162;2023-05-19T06:18:05;102079.06;;;9.05;68.73
49835;BME280;35729;52.090;13.162;2023-05-19T06:20:34;102072.13;;;9.16;68.58
49835;BME280;35729;52.090;13.162;2023-05-19T06:23:02;102073.06;;;9.26;68.46
49835;BME280;35729;52.090;13.162;2023-05-19T06:25:31;102076.66;;;9.40;68.33
49835;BME280;35729;52.090;13.162;2023-05-19T06:27:59;102081.03;;;9.55;68.15
49835;BME280;35729;52.090;13.162;2023-05-19T06:30:30;102070.63;;;9.71;67.92
49835;BME280;35729;52.090;13.162;2023-05-19T06:32:59;102075.91;;;9.86;67.48
49835;BME280;35729;52.090;13.162;2023-05-19T06:35:27;102076.84;;;10.02;67.17
49835;BME280;35729;52.090;13.162;2023-05-19T06:37:56;102072.47;;;10.17;67.08
49835;BME280;35729;52.090;13.162;2023-05-19T06:40:25;102064.63;;;10.31;66.72
49835;BME280;35729;52.090;13.162;2023-05-19T06:42:53;102069.91;;;10.45;66.55
49835;BME280;35729;52.090;13.162;2023-05-19T06:45:22;102076.03;;;10.59;66.25
49835;BME280;35729;52.090;13.162;2023-05-19T06:47:53;102069.03;;;10.72;65.98
49835;BME280;35729;52.090;13.162;2023-05-19T06:50:22;102076.00;;;10.85;65.72
49835;BME280;35729;52.090;13.162;2023-05-19T06:52:51;102080.38;;;10.97;65.45
49835;BME280;35729;52.090;13.162;2023-05-19T06:55:21;102068.09;;;11.08;65.12
49835;BME280;35729;52.090;13.162;2023-05-19T06:57:50;102076.81;;;11.20;64.86
49835;BME280;35729;52.090;13.162;2023-05-19T07:00:18;102077.66;;;11.31;64.42
49835;BME280;35729;52.090;13.162;2023-05-19T07:02:47;102079.34;;;11.41;64.24
49835;BME280;35729;52.090;13.162;2023-05-19T07:05:19;102079.28;;;11.52;64.15
49835;BME280;35729;52.090;13.162;2023-05-19T07:07:47;102078.41;;;11.63;63.88
49835;BME280;35729;52.090;13.162;2023-05-19T07:10:16;102071.34;;;11.71;63.49
49835;BME280;35729;52.090;13.162;2023-05-19T07:12:45;102069.53;;;11.82;63.02
49835;BME280;35729;52.090;13.162;2023-05-19T07:15:14;102077.34;;;11.92;62.71
49835;BME280;35729;52.090;13.162;2023-05-19T07:17:43;102072.06;;;12.02;62.52
49835;BME280;35729;52.090;13.162;2023-05-19T07:20:11;102076.38;;;12.13;62.17
49835;BME280;35729;52.090;13.162;2023-05-19T07:22:43;102078.03;;;12.23;61.93
49835;BME280;35729;52.090;13.162;2023-05-19T07:25:11;102076.22;;;12.34;61.64
49835;BME280;35729;52.090;13.162;2023-05-19T07:27:39;102082.28;;;12.47;61.12
49835;BME280;35729;52.090;13.162;2023-05-19T07:30:09;102082.16;;;12.61;60.73
49835;BME280;35729;52.090;13.162;2023-05-19T07:32:37;102082.03;;;12.75;60.58
49835;BME280;35729;52.090;13.162;2023-05-19T07:35:06;102084.50;;;12.87;60.08
49835;BME280;35729;52.090;13.162;2023-05-19T07:37:36;102079.19;;;12.97;59.68
49835;BME280;35729;52.090;13.162;2023-05-19T07:40:08;102072.03;;;13.08;59.44
49835;BME280;35729;52.090;13.162;2023-05-19T07:42:37;102071.91;;;13.19;59.06
49835;BME280;35729;52.090;13.162;2023-05-19T07:45:06;102067.34;;;13.32;58.54
49835;BME280;35729;52.090;13.162;2023-05-19T07:47:35;102062.84;;;13.43;57.82
49835;BME280;35729;52.090;13.162;2023-05-19T07:50:05;102056.56;;;13.55;57.63
49835;BME280;35729;52.090;13.162;2023-05-19T07:52:34;102060.78;;;13.67;57.31
49835;BME280;35729;52.090;13.162;2023-05-19T07:55:03;102063.31;;;13.76;56.85
49835;BME280;35729;52.090;13.162;2023-05-19T07:57:34;102069.31;;;13.86;56.32
49835;BME280;35729;52.090;13.162;2023-05-19T08:00:03;102065.66;;;13.95;55.31
49835;BME280;35729;52.090;13.162;2023-05-19T08:02:34;102056.78;;;14.02;55.54
49835;BME280;35729;52.090;13.162;2023-05-19T08:05:03;102063.69;;;14.11;55.08
49835;BME280;35729;52.090;13.162;2023-05-19T08:07:33;102060.03;;;14.20;54.52
49835;BME280;35729;52.090;13.162;2023-05-19T08:10:02;102051.91;;;14.30;54.40
49835;BME280;35729;52.090;13.162;2023-05-19T08:12:33;102059.69;;;14.41;54.02
49835;BME280;35729;52.090;13.162;2023-05-19T08:15:03;102059.50;;;14.50;53.82
49835;BME280;35729;52.090;13.162;2023-05-19T08:17:31;102054.06;;;14.61;53.65
49835;BME280;35729;52.090;13.162;2023-05-19T08:20:00;102048.63;;;14.71;53.17
49835;BME280;35729;52.090;13.162;2023-05-19T08:22:30;102040.50;;;14.81;52.44
49835;BME280;35729;52.090;13.162;2023-05-19T08:24:59;102042.94;;;14.92;51.83
49835;BME280;35729;52.090;13.162;2023-05-19T08:27:28;102048.81;;;15.08;51.59
49835;BME280;35729;52.090;13.162;2023-05-19T08:29:59;102045.03;;;15.22;50.99
49835;BME280;35729;52.090;13.162;2023-05-19T08:32:28;102043.03;;;15.33;50.56
49835;BME280;35729;52.090;13.162;2023-05-19T08:34:56;102031.34;;;15.43;49.72
49835;BME280;35729;52.090;13.162;2023-05-19T08:37:25;102039.03;;;15.56;49.26
49835;BME280;35729;52.090;13.162;2023-05-19T08:39:53;102034.41;;;15.64;47.69
49835;BME280;35729;52.090;13.162;2023-05-19T08:42:22;102037.72;;;15.74;47.07
49835;BME280;35729;52.090;13.162;2023-05-19T08:44:50;102028.75;;;15.79;46.60
49835;BME280;35729;52.090;13.162;2023-05-19T08:47:22;102033.00;;;15.88;46.60
49835;BME280;35729;52.090;13.162;2023-05-19T08:49:54;102028.47;;;15.93;46.51
49835;BME280;35729;52.090;13.162;2023-05-19T08:52:34;102034.31;;;16.08;44.28
49835;BME280;35729;52.090;13.162;2023-05-19T08:55:16;102027.94;;;16.17;44.77
49835;BME280;35729;52.090;13.162;2023-05-19T08:57:47;102015.50;;;16.20;44.35
49835;BME280;35729;52.090;13.162;2023-05-19T09:00:17;102015.31;;;16.28;44.52
49835;BME280;35729;52.090;13.162;2023-05-19T09:02:49;102017.78;;;16.34;44.50
49835;BME280;35729;52.090;13.162;2023-05-19T09:05:19;102011.41;;;16.43;44.46
49835;BME280;35729;52.090;13.162;2023-05-19T09:07:48;102009.34;;;16.53;44.09
49835;BME280;35729;52.090;13.162;2023-05-19T09:10:16;102008.28;;;16.60;44.06
49835;BME280;35729;52.090;13.162;2023-05-19T09:12:46;102001.00;;;16.68;43.83
49835;BME280;35729;52.090;13.162;2023-05-19T09:15:16;101992.91;;;16.73;43.41
49835;BME280;35729;52.090;13.162;2023-05-19T09:17:45;101991.88;;;16.78;43.53
49835;BME280;35729;52.090;13.162;2023-05-19T09:20:18;101994.22;;;16.89;42.84
49835;BME280;35729;52.090;13.162;2023-05-19T09:22:46;101997.63;;;16.94;43.03
49835;BME280;35729;52.090;13.162;2023-05-19T09:25:18;101996.50;;;17.03;42.69
49835;BME280;35729;52.090;13.162;2023-05-19T09:27:47;101987.41;;;17.14;42.74
49835;BME280;35729;52.090;13.162;2023-05-19T09:30:16;101983.56;;;17.24;42.26
49835;BME280;35729;52.090;13.162;2023-05-19T09:32:51;101983.25;;;17.33;41.28
49835;BME280;35729;52.090;13.162;2023-05-19T09:35:33;101989.16;;;17.43;41.06
49835;BME280;35729;52.090;13.162;2023-05-19T09:38:01;101994.34;;;17.46;42.08
49835;BME280;35729;52.090;13.162;2023-05-19T09:40:30;101987.22;;;17.48;41.79
49835;BME280;35729;52.090;13.162;2023-05-19T09:43:04;101987.19;;;17.50;40.87
49835;BME280;35729;52.090;13.162;2023-05-19T09:45:32;101991.56;;;17.51;41.59
49835;BME280;35729;52.090;13.162;2023-05-19T09:48:03;101984.44;;;17.53;41.22
49835;BME280;35729;52.090;13.162;2023-05-19T09:50:34;101984.19;;;17.61;41.64
49835;BME280;35729;52.090;13.162;2023-05-19T09:53:03;101980.47;;;17.66;41.38
49835;BME280;35729;52.090;13.162;2023-05-19T09:55:31;101972.44;;;17.69;41.16
49835;BME280;35729;52.090;13.162;2023-05-19T09:58:01;101972.31;;;17.72;41.66
49835;BME280;35729;52.090;13.162;2023-05-19T10:00:31;101974.88;;;17.75;40.98
49835;BME280;35729;52.090;13.162;2023-05-19T10:03:02;101969.41;;;17.80;40.31
49835;BME280;35729;52.090;13.162;2023-05-19T10:05:35;101970.19;;;17.84;40.15
49835;BME280;35729;52.090;13.162;2023-05-19T10:08:04;101971.00;;;17.86;40.13
49835;BME280;35729;52.090;13.162;2023-05-19T10:10:35;101978.97;;;17.86;39.94
49835;BME280;35729;52.090;13.162;2023-05-19T10:13:04;101965.69;;;17.86;39.50
49835;BME280;35729;52.090;13.162;2023-05-19T10:15:34;101965.72;;;17.84;38.62
49835;BME280;35729;52.090;13.162;2023-05-19T10:18:06;101971.78;;;17.89;39.56
49835;BME280;35729;52.090;13.162;2023-05-19T10:20:39;101972.47;;;17.96;39.08
49835;BME280;35729;52.090;13.162;2023-05-19T10:23:08;101957.19;;;18.03;39.43
49835;BME280;35729;52.090;13.162;2023-05-19T10:25:37;101957.75;;;18.13;38.96
49835;BME280;35729;52.090;13.162;2023-05-19T10:28:11;101965.44;;;18.20;38.75
49835;BME280;35729;52.090;13.162;2023-05-19T10:30:43;101956.31;;;18.29;38.84
49835;BME280;35729;52.090;13.162;2023-05-19T10:33:14;101954.19;;;18.39;38.79
49835;BME280;35729;52.090;13.162;2023-05-19T10:36:01;101953.69;;;18.53;38.45
49835;BME280;35729;52.090;13.162;2023-05-19T10:38:40;101947.75;;;18.70;37.71
49835;BME280;35729;52.090;13.162;2023-05-19T10:41:12;101936.59;;;18.84;37.83
49835;BME280;35729;52.090;13.162;2023-05-19T10:43:55;101938.75;;;18.99;37.62
49835;BME280;35729;52.090;13.162;2023-05-19T10:46:26;101940.91;;;19.12;37.54
49835;BME280;35729;52.090;13.162;2023-05-19T10:48:56;101935.13;;;19.24;37.78
49835;BME280;35729;52.090;13.162;2023-05-19T10:51:30;101948.13;;;19.32;37.14
49835;BME280;35729;52.090;13.162;2023-05-19T10:54:01;101942.72;;;19.33;37.29
49835;BME280;35729;52.090;13.162;2023-05-19T10:56:33;101932.16;;;19.32;37.21
49835;BME280;35729;52.090;13.162;2023-05-19T10:59:02;101938.28;;;19.34;37.32
49835;BME280;35729;52.090;13.162;2023-05-19T11:01:31;101935.44;;;19.39;36.92
49835;BME280;35729;52.090;13.162;2023-05-19T11:04:06;101939.78;;;19.41;37.01
49835;BME280;35729;52.090;13.162;2023-05-19T11:06:39;101933.41;;;19.45;36.20
49835;BME280;35729;52.090;13.162;2023-05-19T11:09:12;101935.50;;;19.59;36.29
49835;BME280;35729;52.090;13.162;2023-05-19T11:11:46;101919.13;;;19.68;35.29
49835;BME280;35729;52.090;13.162;2023-05-19T11:14:16;101918.63;;;19.81;35.96
49835;BME280;35729;52.090;13.162;2023-05-19T11:16:46;101903.09;;;19.92;35.80
49835;BME280;35729;52.090;13.162;2023-05-19T11:19:19;101915.59;;;19.90;34.81
49835;BME280;35729;52.090;13.162;2023-05-19T11:21:56;101912.34;;;19.83;35.16
49835;BME280;35729;52.090;13.162;2023-05-19T11:24:35;101907.56;;;19.69;35.77
49835;BME280;35729;52.090;13.162;2023-05-19T11:27:17;101906.09;;;19.62;35.68
49835;BME280;35729;52.090;13.162;2023-05-19T11:29:46;101912.53;;;19.57;36.23
49835;BME280;35729;52.090;13.162;2023-05-19T11:32:16;101914.38;;;19.54;35.95
49835;BME280;35729;52.090;13.162;2023-05-19T11:34:46;101910.19;;;19.49;36.16
49835;BME280;35729;52.090;13.162;2023-05-19T11:37:18;101910.19;;;19.49;35.23
49835;BME280;35729;52.090;13.162;2023-05-19T11:39:46;101905.72;;;19.49;35.60
49835;BME280;35729;52.090;13.162;2023-05-19T11:42:15;101908.28;;;19.52;36.14
49835;BME280;35729;52.090;13.162;2023-05-19T11:44:44;101906.81;;;19.66;35.44
49835;BME280;35729;52.090;13.162;2023-05-19T11:47:14;101915.22;;;19.77;35.37
49835;BME280;35729;52.090;13.162;2023-05-19T11:49:43;101912.47;;;19.80;34.88
49835;BME280;35729;52.090;13.162;2023-05-19T11:52:12;101902.53;;;19.84;35.20
49835;BME280;35729;52.090;13.162;2023-05-19T11:54:47;101914.59;;;19.93;34.42
49835;BME280;35729;52.090;13.162;2023-05-19T11:57:17;101900.09;;;20.00;34.78
49835;BME280;35729;52.090;13.162;2023-05-19T11:59:45;101902.56;;;20.05;34.87
49835;BME280;35729;52.090;13.162;2023-05-19T12:02:17;101896.19;;;20.09;34.45
49835;BME280;35729;52.090;13.162;2023-05-19T12:04:46;101899.78;;;20.08;34.40
49835;BME280;35729;52.090;13.162;2023-05-19T12:07:17;101908.75;;;20.05;34.79
49835;BME280;35729;52.090;13.162;2023-05-19T12:09:50;101902.44;;;20.08;34.61
49835;BME280;35729;52.090;13.162;2023-05-19T12:12:20;101905.38;;;20.22;34.81
49835;BME280;35729;52.090;13.162;2023-05-19T12:14:51;101900.09;;;20.41;34.24
49835;BME280;35729;52.090;13.162;2023-05-19T12:17:20;101891.31;;;20.58;33.87
49835;BME280;35729;52.090;13.162;2023-05-19T12:19:49;101887.03;;;20.75;33.59
49835;BME280;35729;52.090;13.162;2023-05-19T12:22:18;101882.72;;;20.91;33.38
49835;BME280;35729;52.090;13.162;2023-05-19T12:24:49;101896.56;;;20.99;32.80
49835;BME280;35729;52.090;13.162;2023-05-19T12:27:19;101892.97;;;21.01;33.17
49835;BME280;35729;52.090;13.162;2023-05-19T12:29:51;101888.28;;;21.06;32.57
49835;BME280;35729;52.090;13.162;2023-05-19T12:32:22;101876.22;;;21.16;32.32
49835;BME280;35729;52.090;13.162;2023-05-19T12:34:57;101886.44;;;21.25;32.32
49835;BME280;35729;52.090;13.162;2023-05-19T12:37:26;101884.47;;;21.29;32.37
49835;BME280;35729;52.090;13.162;2023-05-19T12:39:58;101880.78;;;21.31;31.65
49835;BME280;35729;52.090;13.162;2023-05-19T12:42:28;101897.38;;;21.38;32.35
49835;BME280;35729;52.090;13.162;2023-05-19T12:45:01;101898.06;;;21.42;32.28
49835;BME280;35729;52.090;13.162;2023-05-19T12:47:32;101890.69;;;21.47;31.95
49835;BME280;35729;52.090;13.162;2023-05-19T12:50:02;101887.09;;;21.48;31.75
49835;BME280;35729;52.090;13.162;2023-05-19T12:52:33;101884.50;;;21.46;31.87
49835;BME280;35729;52.090;13.162;2023-05-19T12:55:07;101878.38;;;21.44;31.71
49835;BME280;35729;52.090;13.162;2023-05-19T12:57:37;101872.19;;;21.44;32.16
49835;BME280;35729;52.090;13.162;2023-05-19T13:00:07;101861.72;;;21.39;32.42
49835;BME280;35729;52.090;13.162;2023-05-19T13:02:55;101877.34;;;21.29;32.14
49835;BME280;35729;52.090;13.162;2023-05-19T13:05:24;101865.25;;;21.22;32.57